Time;durP1;ratioP1;P1;durP2;ratioP2;P2;SDS_P1;SDS_P2;PMS_P1;PMS_P2;Temp;Humidity;BMP_temperature;BMP_pressure;BME280_temperature;BME280_humidity;BME280_pressure;Samples;Min_cycle;Max_cycle;Signal;HPM_P1;HPM_P2
2023/07/20 00:01:25;;;;;;;59.13;9.53;;;21.10;77.40;;;;;;5104328;28;20480;-78
2023/07/20 00:03:55;;;;;;;36.87;8.60;;;21.10;77.60;;;;;;5104595;28;20968;-78
2023/07/20 00:06:24;;;;;;;45.20;8.10;;;21.10;77.50;;;;;;5105228;28;20540;-78
2023/07/20 00:08:52;;;;;;;43.43;8.80;;;21.10;77.70;;;;;;5103886;28;20482;-78
2023/07/20 00:11:22;;;;;;;38.60;7.50;;;21.10;77.70;;;;;;5102371;28;21001;-78
2023/07/20 00:14:11;;;;;;;42.87;7.57;;;21.10;77.80;;;;;;5104188;28;20562;-78
2023/07/20 00:16:39;;;;;;;37.63;8.30;;;21.10;77.80;;;;;;5088162;28;20457;-78
2023/07/20 00:19:08;;;;;;;39.80;7.20;;;21.10;77.90;;;;;;5105015;28;20980;-78
2023/07/20 00:21:36;;;;;;;26.70;6.77;;;21.10;77.70;;;;;;5106720;28;20449;-78
2023/07/20 00:24:05;;;;;;;27.90;7.67;;;21.10;77.80;;;;;;5105453;28;20797;-78
2023/07/20 00:26:34;;;;;;;28.73;6.30;;;21.10;77.90;;;;;;5107516;28;20555;-78
2023/07/20 00:29:02;;;;;;;31.53;6.60;;;21.10;77.80;;;;;;5107410;28;20451;-79
2023/07/20 00:31:30;;;;;;;34.00;6.07;;;21.20;77.80;;;;;;5102938;28;20532;-78
2023/07/20 00:33:58;;;;;;;16.00;5.10;;;21.20;77.80;;;;;;5101379;28;20456;-79
2023/07/20 00:36:26;;;;;;;19.13;5.70;;;21.20;77.70;;;;;;5103297;28;20471;-78
2023/07/20 00:38:54;;;;;;;21.83;6.77;;;21.20;77.70;;;;;;5107810;28;20455;-78
2023/07/20 00:41:23;;;;;;;28.23;6.27;;;21.20;77.70;;;;;;5107661;28;20468;-78
2023/07/20 00:43:52;;;;;;;23.20;5.13;;;21.20;77.70;;;;;;5105565;28;20554;-79
2023/07/20 00:46:43;;;;;;;26.17;6.40;;;21.20;77.70;;;;;;5104724;28;20472;-78
2023/07/20 00:49:12;;;;;;;31.53;6.50;;;21.20;77.70;;;;;;5094522;28;20456;-78
2023/07/20 00:51:40;;;;;;;29.23;6.40;;;21.20;77.70;;;;;;5102372;28;20469;-78
2023/07/20 00:54:09;;;;;;;51.70;7.90;;;21.20;77.50;;;;;;5109166;27;21239;-79
2023/07/20 00:56:37;;;;;;;44.03;8.00;;;21.20;77.50;;;;;;5102286;28;21268;-80
2023/07/20 00:59:07;;;;;;;39.27;6.80;;;21.20;77.50;;;;;;5105145;28;21077;-78
2023/07/20 01:01:35;;;;;;;33.23;7.80;;;21.20;77.60;;;;;;5104687;28;21019;-78
2023/07/20 01:04:04;;;;;;;31.47;7.20;;;21.20;77.60;;;;;;5105697;28;20525;-79
2023/07/20 01:06:41;;;;;;;35.27;6.43;;;21.20;77.50;;;;;;5102022;28;20586;-79
2023/07/20 01:09:14;;;;;;;28.70;7.17;;;21.20;77.60;;;;;;5101089;28;20463;-79
2023/07/20 01:11:49;;;;;;;37.07;7.03;;;21.20;77.60;;;;;;5103901;28;20548;-79
2023/07/20 01:14:20;;;;;;;30.33;6.23;;;21.20;77.60;;;;;;5103961;28;20530;-79
2023/07/20 01:16:49;;;;;;;34.03;6.80;;;21.20;77.60;;;;;;5103563;28;20492;-77
2023/07/20 01:19:17;;;;;;;22.47;5.60;;;21.20;77.60;;;;;;5104831;28;20487;-78
2023/07/20 01:21:54;;;;;;;14.03;5.37;;;21.20;77.60;;;;;;5101549;28;20554;-78
2023/07/20 01:25:00;;;;;;;50.10;7.53;;;21.20;77.70;;;;;;5107644;28;21010;-78
2023/07/20 01:28:08;;;;;;;47.63;7.80;;;21.10;77.60;;;;;;5104305;28;20475;-77
2023/07/20 01:30:56;;;;;;;36.60;6.77;;;21.10;77.50;;;;;;5061576;28;20557;-78
2023/07/20 01:33:27;;;;;;;33.70;7.47;;;21.10;77.50;;;;;;5102361;28;20458;-79
2023/07/20 01:35:58;;;;;;;35.90;6.47;;;21.00;77.40;;;;;;5097967;28;20472;-78
2023/07/20 01:38:26;;;;;;;28.13;6.73;;;21.00;77.40;;;;;;5101545;28;20501;-78
2023/07/20 01:40:55;;;;;;;29.80;6.30;;;21.00;77.40;;;;;;5101608;28;20558;-78
2023/07/20 01:43:26;;;;;;;28.17;5.73;;;20.90;77.30;;;;;;5099737;28;20543;-78
2023/07/20 01:45:54;;;;;;;22.40;6.37;;;20.90;77.30;;;;;;5105010;28;20457;-77
2023/07/20 01:48:22;;;;;;;17.33;5.33;;;20.80;77.30;;;;;;5097833;28;20549;-78
2023/07/20 01:50:52;;;;;;;34.27;6.60;;;20.80;77.40;;;;;;5107998;28;20456;-77
2023/07/20 01:53:20;;;;;;;35.47;6.97;;;20.80;77.30;;;;;;5118352;27;20463;-78
2023/07/20 01:55:48;;;;;;;21.67;5.60;;;20.80;77.20;;;;;;5098016;28;20456;-78
2023/07/20 01:58:16;;;;;;;28.93;5.53;;;20.70;77.20;;;;;;5100637;28;21166;-78
2023/07/20 02:00:44;;;;;;;24.40;4.67;;;20.70;77.10;;;;;;5116824;27;20567;-78
2023/07/20 02:03:13;;;;;;;17.77;5.97;;;20.60;77.10;;;;;;5103257;28;21024;-78
2023/07/20 02:05:43;;;;;;;28.00;5.40;;;20.60;77.10;;;;;;5100995;28;20465;-78
2023/07/20 02:08:13;;;;;;;19.60;5.80;;;20.60;77.00;;;;;;5107564;28;21092;-78
2023/07/20 02:10:41;;;;;;;27.90;5.63;;;20.50;76.90;;;;;;5106048;28;20488;-78
2023/07/20 02:13:09;;;;;;;14.27;5.00;;;20.50;76.80;;;;;;5095346;28;20488;-78
2023/07/20 02:15:37;;;;;;;18.80;5.60;;;20.40;76.70;;;;;;5097213;28;20487;-78
2023/07/20 02:18:05;;;;;;;17.73;4.80;;;20.40;76.80;;;;;;5103825;28;21233;-78
2023/07/20 02:20:34;;;;;;;9.17;4.37;;;20.30;76.80;;;;;;5103337;28;20530;-78
2023/07/20 02:23:02;;;;;;;24.73;5.80;;;20.30;76.90;;;;;;5098876;28;20448;-78
2023/07/20 02:25:32;;;;;;;23.17;5.10;;;20.30;76.90;;;;;;5102753;28;20468;-79
2023/07/20 02:28:00;;;;;;;19.20;4.93;;;20.30;76.80;;;;;;5091484;28;20479;-78
2023/07/20 02:30:28;;;;;;;18.30;5.30;;;20.20;76.80;;;;;;5099653;28;20476;-78
2023/07/20 02:32:58;;;;;;;14.80;4.90;;;20.20;76.80;;;;;;5098717;28;20945;-79
2023/07/20 02:35:26;;;;;;;13.47;4.67;;;20.20;76.80;;;;;;5095393;28;20476;-78
2023/07/20 02:37:55;;;;;;;22.67;5.07;;;20.10;76.80;;;;;;5100916;28;21014;-79
2023/07/20 02:40:23;;;;;;;17.27;4.57;;;20.10;76.80;;;;;;5097832;28;20497;-79
2023/07/20 02:42:52;;;;;;;26.07;5.60;;;20.10;76.70;;;;;;5100294;28;20463;-79
2023/07/20 02:45:20;;;;;;;18.50;4.47;;;20.10;76.70;;;;;;5104620;28;20542;-79
2023/07/20 02:47:48;;;;;;;23.83;5.80;;;20.10;76.60;;;;;;5095952;28;20475;-80
2023/07/20 02:50:18;;;;;;;31.60;7.70;;;20.10;76.50;;;;;;5098961;28;20458;-79
2023/07/20 02:52:46;;;;;;;45.07;7.00;;;20.00;76.30;;;;;;5100802;28;20448;-80
2023/07/20 02:55:15;;;;;;;30.53;5.50;;;20.00;76.10;;;;;;5098668;28;20545;-78
2023/07/20 02:57:43;;;;;;;24.00;4.80;;;19.90;76.00;;;;;;5099381;28;20453;-79
2023/07/20 03:00:16;;;;;;;30.47;6.10;;;19.80;76.10;;;;;;5110611;28;20457;-79
2023/07/20 03:02:47;;;;;;;21.90;5.60;;;19.80;76.10;;;;;;5104210;28;20460;-79
2023/07/20 03:05:16;;;;;;;30.07;6.13;;;19.80;76.10;;;;;;5103594;28;20542;-79
2023/07/20 03:07:44;;;;;;;22.50;5.50;;;19.80;76.00;;;;;;5100516;28;20529;-81
2023/07/20 03:10:12;;;;;;;24.43;5.17;;;19.70;75.90;;;;;;5099657;28;20452;-80
2023/07/20 03:12:41;;;;;;;28.33;6.40;;;19.60;76.10;;;;;;5100506;28;21186;-79
2023/07/20 03:15:10;;;;;;;23.27;5.23;;;19.60;76.00;;;;;;5097364;28;20455;-79
2023/07/20 03:17:39;;;;;;;19.63;4.60;;;19.60;76.00;;;;;;5101444;28;20539;-78
2023/07/20 03:20:10;;;;;;;26.93;5.43;;;19.60;76.00;;;;;;5099186;28;20448;-78
2023/07/20 03:22:38;;;;;;;22.03;5.40;;;19.60;76.00;;;;;;5102932;28;20444;-79
2023/07/20 03:25:07;;;;;;;13.30;3.80;;;19.50;76.00;;;;;;5095600;28;20459;-79
2023/07/20 03:27:35;;;;;;;20.97;4.97;;;19.50;75.90;;;;;;5102131;28;20464;-79
2023/07/20 03:30:03;;;;;;;16.97;4.60;;;19.50;75.90;;;;;;5102540;28;20498;-79
2023/07/20 03:32:31;;;;;;;16.50;4.67;;;19.50;75.90;;;;;;5100022;27;20499;-79
2023/07/20 03:35:04;;;;;;;18.70;5.10;;;19.40;75.70;;;;;;5108351;28;20448;-79
2023/07/20 03:37:34;;;;;;;19.93;5.13;;;19.40;75.70;;;;;;5102428;28;20530;-79
2023/07/20 03:40:04;;;;;;;18.60;4.50;;;19.30;75.60;;;;;;5109624;28;21313;-80
2023/07/20 03:42:32;;;;;;;22.47;5.77;;;19.30;75.70;;;;;;5105622;28;20505;-79
2023/07/20 03:45:00;;;;;;;21.03;4.73;;;19.30;75.70;;;;;;5104524;28;20467;-79
2023/07/20 03:47:28;;;;;;;19.87;5.37;;;19.30;75.50;;;;;;5104902;28;20455;-78
2023/07/20 03:49:56;;;;;;;14.50;4.30;;;19.20;75.50;;;;;;5108944;28;20824;-79
2023/07/20 03:52:26;;;;;;;24.03;4.70;;;19.20;75.40;;;;;;5107031;28;20464;-79
2023/07/20 03:54:54;;;;;;;27.60;5.30;;;19.20;75.40;;;;;;5106996;28;20496;-78
2023/07/20 03:57:22;;;;;;;18.57;4.63;;;19.20;75.40;;;;;;5107597;28;20494;-78
2023/07/20 03:59:50;;;;;;;19.80;4.90;;;19.20;75.50;;;;;;5105765;28;20922;-78
2023/07/20 04:02:18;;;;;;;21.10;5.40;;;19.20;75.50;;;;;;5101390;28;20600;-80
2023/07/20 04:04:46;;;;;;;15.23;4.47;;;19.20;75.40;;;;;;5105368;27;20551;-79
2023/07/20 04:07:14;;;;;;;33.73;6.07;;;19.10;75.30;;;;;;5102532;28;21032;-78
2023/07/20 04:09:44;;;;;;;26.00;5.00;;;19.10;75.40;;;;;;5105061;28;20525;-79
2023/07/20 04:12:12;;;;;;;22.37;4.53;;;19.10;75.40;;;;;;5102333;28;20457;-79
2023/07/20 04:14:40;;;;;;;22.90;4.87;;;19.10;75.40;;;;;;5103641;28;20984;-79
2023/07/20 04:17:08;;;;;;;20.83;5.17;;;19.10;75.40;;;;;;5105922;28;20964;-79
2023/07/20 04:19:36;;;;;;;22.17;6.03;;;19.10;75.50;;;;;;5105619;28;20445;-78
2023/07/20 04:22:05;;;;;;;16.57;4.30;;;19.20;75.50;;;;;;5099106;28;21239;-78
2023/07/20 04:24:33;;;;;;;17.63;5.00;;;19.20;75.50;;;;;;5101970;28;20460;-79
2023/07/20 04:27:02;;;;;;;14.50;4.47;;;19.30;75.50;;;;;;5100939;28;20509;-79
2023/07/20 04:29:30;;;;;;;13.40;5.50;;;19.30;75.40;;;;;;5102624;28;21636;-78
2023/07/20 04:31:58;;;;;;;14.83;5.00;;;19.30;75.30;;;;;;5118891;27;20478;-79
2023/07/20 04:34:26;;;;;;;23.23;4.27;;;19.30;75.30;;;;;;5106446;28;20455;-76
2023/07/20 04:36:54;;;;;;;14.90;5.30;;;19.30;75.30;;;;;;5104232;28;20513;-79
2023/07/20 04:39:24;;;;;;;14.00;4.73;;;19.30;75.40;;;;;;5103757;28;20539;-79
2023/07/20 04:42:02;;;;;;;13.10;5.23;;;19.30;75.50;;;;;;5103263;28;20455;-78
2023/07/20 04:44:30;;;;;;;13.30;4.97;;;19.40;75.60;;;;;;5102702;28;20457;-79
2023/07/20 04:46:58;;;;;;;12.30;4.73;;;19.50;75.70;;;;;;5105651;28;20458;-79
2023/07/20 04:49:26;;;;;;;12.43;4.60;;;19.70;75.70;;;;;;5105499;28;20468;-78
2023/07/20 04:51:54;;;;;;;17.30;4.50;;;19.80;75.60;;;;;;5105740;27;20545;-79
2023/07/20 04:54:22;;;;;;;21.83;4.20;;;20.00;75.60;;;;;;5101207;28;20503;-78
2023/07/20 04:56:50;;;;;;;29.83;5.43;;;20.10;75.50;;;;;;5103806;28;20456;-78
2023/07/20 04:59:21;;;;;;;25.50;6.20;;;20.30;75.40;;;;;;5105417;28;20446;-79
2023/07/20 05:01:49;;;;;;;26.63;5.70;;;20.40;75.40;;;;;;5099126;28;20463;-79
2023/07/20 05:04:18;;;;;;;35.13;5.60;;;20.60;75.20;;;;;;5101700;28;20509;-77
2023/07/20 05:06:46;;;;;;;22.10;5.40;;;20.70;75.10;;;;;;5103172;28;20459;-78
2023/07/20 05:09:14;;;;;;;23.97;4.90;;;20.80;75.00;;;;;;5107824;28;20507;-79
2023/07/20 05:11:44;;;;;;;16.83;4.57;;;21.00;74.80;;;;;;5101914;28;20460;-79
2023/07/20 05:14:12;;;;;;;20.93;4.33;;;21.10;74.60;;;;;;5101291;28;20483;-78
2023/07/20 05:16:42;;;;;;;24.90;5.33;;;21.30;74.40;;;;;;5103421;28;21033;-78
2023/07/20 05:19:10;;;;;;;25.67;5.30;;;21.40;74.30;;;;;;5095430;28;20502;-78
2023/07/20 05:21:38;;;;;;;18.10;4.37;;;21.60;74.20;;;;;;5105591;28;20560;-79
2023/07/20 05:24:08;;;;;;;21.30;4.50;;;21.70;74.00;;;;;;5099462;28;20464;-76
2023/07/20 05:26:36;;;;;;;25.60;5.07;;;21.80;73.90;;;;;;5100326;27;20852;-78
2023/07/20 05:29:04;;;;;;;17.17;4.70;;;22.00;73.80;;;;;;5103276;28;20476;-79
2023/07/20 05:31:32;;;;;;;17.30;4.27;;;22.10;73.80;;;;;;5100771;28;20567;-78
2023/07/20 05:34:02;;;;;;;15.47;4.70;;;22.30;73.80;;;;;;5099833;28;20492;-78
2023/07/20 05:36:30;;;;;;;11.70;4.10;;;22.60;74.00;;;;;;5101541;28;20505;-78
2023/07/20 05:38:58;;;;;;;14.20;3.50;;;23.00;73.70;;;;;;5101948;28;20455;-79
2023/07/20 05:41:27;;;;;;;14.30;3.50;;;23.70;72.70;;;;;;5098695;28;20453;-78
2023/07/20 05:43:55;;;;;;;14.00;3.77;;;24.60;70.80;;;;;;5101485;28;20532;-78
2023/07/20 05:46:24;;;;;;;9.53;3.80;;;25.50;69.10;;;;;;5100881;28;20448;-78
2023/07/20 05:48:53;;;;;;;11.07;3.63;;;26.30;67.60;;;;;;5102955;28;20525;-78
2023/07/20 05:51:23;;;;;;;7.90;3.27;;;27.10;66.20;;;;;;5102681;28;20460;-79
2023/07/20 05:53:51;;;;;;;11.60;3.03;;;27.70;65.00;;;;;;5102340;28;20457;-78
2023/07/20 05:56:19;;;;;;;11.90;3.30;;;28.30;64.20;;;;;;5100109;28;20462;-79
2023/07/20 05:58:47;;;;;;;8.80;3.77;;;28.90;63.30;;;;;;5103412;28;20451;-78
2023/07/20 06:01:15;;;;;;;10.70;2.90;;;29.40;62.60;;;;;;5100641;28;21116;-79
2023/07/20 06:03:43;;;;;;;6.20;2.87;;;29.90;61.40;;;;;;5100017;28;20437;-78
2023/07/20 06:06:12;;;;;;;8.50;3.70;;;30.40;60.40;;;;;;5098377;27;20456;-79
2023/07/20 06:08:42;;;;;;;7.20;3.17;;;30.80;59.30;;;;;;5097079;28;20444;-79
2023/07/20 06:11:10;;;;;;;11.90;3.40;;;31.30;58.30;;;;;;5094588;28;20460;-79
2023/07/20 06:13:38;;;;;;;8.50;3.20;;;31.70;57.40;;;;;;5098574;28;20527;-79
2023/07/20 06:16:06;;;;;;;10.13;2.70;;;32.10;56.10;;;;;;5100266;28;20469;-79
2023/07/20 06:18:34;;;;;;;10.20;3.80;;;32.40;55.00;;;;;;5098831;28;20465;-80
2023/07/20 06:21:02;;;;;;;6.50;2.80;;;32.70;54.10;;;;;;5099315;28;20448;-78
2023/07/20 06:23:30;;;;;;;8.07;2.80;;;32.80;53.20;;;;;;5100956;28;20830;-78
2023/07/20 06:25:59;;;;;;;6.20;2.43;;;32.70;52.80;;;;;;5101330;28;20464;-79
2023/07/20 06:28:27;;;;;;;11.17;3.10;;;32.10;52.60;;;;;;5101300;28;20554;-78
2023/07/20 06:31:00;;;;;;;9.03;3.33;;;31.30;52.70;;;;;;5103530;28;21069;-78
2023/07/20 06:33:28;;;;;;;8.10;2.90;;;30.10;52.90;;;;;;5098692;28;20455;-78
2023/07/20 06:35:57;;;;;;;9.50;3.10;;;28.90;53.90;;;;;;5101866;28;20954;-78
2023/07/20 06:38:25;;;;;;;7.97;3.23;;;27.70;55.20;;;;;;5102697;28;20458;-78
2023/07/20 06:40:56;;;;;;;11.63;3.30;;;26.80;56.40;;;;;;5101532;28;20444;-78
2023/07/20 06:43:26;;;;;;;8.27;2.90;;;26.00;57.50;;;;;;5099020;28;20443;-79
2023/07/20 06:45:57;;;;;;;8.17;3.43;;;25.30;58.50;;;;;;5094986;28;20472;-77
2023/07/20 06:48:25;;;;;;;8.60;3.83;;;24.80;59.20;;;;;;5098770;28;20441;-78
2023/07/20 06:50:53;;;;;;;9.57;3.03;;;24.50;60.00;;;;;;5100611;28;20480;-77
2023/07/20 06:53:21;;;;;;;9.10;3.03;;;24.10;60.70;;;;;;5095241;28;20452;-78
2023/07/20 06:55:49;;;;;;;6.37;3.27;;;23.80;61.20;;;;;;5104828;28;20463;-78
2023/07/20 06:58:18;;;;;;;9.53;3.63;;;23.60;61.70;;;;;;5103337;28;20455;-78
2023/07/20 07:00:48;;;;;;;10.30;2.97;;;23.40;62.20;;;;;;5099308;28;20483;-77
2023/07/20 07:03:16;;;;;;;12.10;3.40;;;23.30;62.60;;;;;;5102040;28;20444;-77
2023/07/20 07:05:45;;;;;;;7.93;3.60;;;23.20;63.00;;;;;;5096454;28;21221;-78
2023/07/20 07:08:17;;;;;;;10.07;3.23;;;23.10;63.40;;;;;;5101618;28;20463;-78
2023/07/20 07:10:45;;;;;;;8.07;3.40;;;23.00;63.80;;;;;;5104718;28;20507;-78
2023/07/20 07:13:13;;;;;;;15.27;3.90;;;22.90;64.10;;;;;;5104066;28;20452;-78
2023/07/20 07:15:41;;;;;;;8.57;3.50;;;22.80;64.50;;;;;;5101241;28;20839;-78
2023/07/20 07:18:10;;;;;;;7.50;3.60;;;22.70;64.80;;;;;;5099317;28;20536;-78
2023/07/20 07:20:38;;;;;;;7.33;3.20;;;22.60;65.10;;;;;;5099864;28;20509;-78
2023/07/20 07:23:06;;;;;;;7.53;3.30;;;22.60;65.20;;;;;;5095421;28;20465;-78
2023/07/20 07:25:34;;;;;;;6.57;3.50;;;22.50;65.50;;;;;;5098264;28;20875;-78
2023/07/20 07:28:03;;;;;;;7.77;3.73;;;22.40;65.80;;;;;;5093099;28;20552;-79
2023/07/20 07:30:31;;;;;;;8.07;2.90;;;22.20;66.20;;;;;;5099495;28;20909;-78
2023/07/20 07:33:01;;;;;;;8.80;3.57;;;22.20;66.20;;;;;;5098752;28;20456;-78
2023/07/20 07:35:31;;;;;;;9.03;3.60;;;22.10;66.30;;;;;;5100645;28;20479;-77
2023/07/20 07:37:59;;;;;;;6.27;2.90;;;22.10;66.60;;;;;;5100806;28;20459;-79
2023/07/20 07:40:46;;;;;;;7.03;3.37;;;22.20;66.60;;;;;;5101176;28;21207;-78
2023/07/20 07:43:14;;;;;;;9.40;2.80;;;22.10;66.80;;;;;;5097584;28;20554;-78
2023/07/20 07:45:42;;;;;;;10.53;3.50;;;22.00;66.70;;;;;;5099791;28;20456;-78
2023/07/20 07:48:12;;;;;;;14.70;3.57;;;21.90;66.80;;;;;;5096908;28;20940;-78
2023/07/20 07:50:41;;;;;;;13.50;3.77;;;22.00;66.80;;;;;;5101402;28;20832;-79
2023/07/20 07:53:10;;;;;;;8.80;3.27;;;22.10;66.90;;;;;;5102006;28;20440;-78
2023/07/20 07:55:39;;;;;;;8.47;3.20;;;22.10;66.70;;;;;;5098631;28;21071;-78
2023/07/20 07:58:06;;;;;;;12.63;3.37;;;22.00;66.70;;;;;;5102550;28;20497;-79
2023/07/20 08:00:34;;;;;;;5.90;2.90;;;22.00;66.70;;;;;;5106573;28;21100;-80
2023/07/20 08:03:02;;;;;;;9.57;3.70;;;22.00;66.80;;;;;;5104676;28;20841;-79
2023/07/20 08:05:30;;;;;;;9.53;3.17;;;22.10;66.90;;;;;;5102807;28;20485;-79
2023/07/20 08:08:00;;;;;;;8.27;3.40;;;22.10;66.90;;;;;;5098818;28;20453;-78
2023/07/20 08:10:28;;;;;;;6.73;2.93;;;22.10;66.80;;;;;;5097886;28;20472;-78
2023/07/20 08:12:56;;;;;;;9.93;3.03;;;22.20;66.90;;;;;;5096263;28;20581;-79
2023/07/20 08:15:24;;;;;;;6.87;3.30;;;22.30;66.90;;;;;;5102406;28;20443;-77
2023/07/20 08:17:52;;;;;;;7.00;3.00;;;22.30;66.80;;;;;;5105561;28;21250;-78
2023/07/20 08:20:26;;;;;;;8.33;3.27;;;22.30;66.90;;;;;;5098520;28;20444;-79
2023/07/20 08:22:55;;;;;;;7.03;3.10;;;22.30;66.60;;;;;;5102684;28;20945;-79
2023/07/20 08:25:24;;;;;;;8.83;3.43;;;22.20;66.60;;;;;;5100379;28;20647;-78
2023/07/20 08:27:52;;;;;;;7.97;3.07;;;22.20;66.50;;;;;;5102602;28;20456;-77
2023/07/20 08:30:22;;;;;;;6.97;3.00;;;22.20;66.50;;;;;;5098813;28;20467;-79
2023/07/20 08:32:50;;;;;;;9.33;3.50;;;22.30;66.50;;;;;;5099978;28;20452;-78
2023/07/20 08:35:18;;;;;;;9.17;3.00;;;22.30;66.20;;;;;;5102610;28;20801;-78
2023/07/20 08:37:49;;;;;;;10.37;3.13;;;22.30;66.20;;;;;;5103267;28;20513;-79
2023/07/20 08:40:17;;;;;;;7.00;2.73;;;22.30;66.10;;;;;;5102688;28;20483;-79
2023/07/20 08:42:47;;;;;;;7.60;3.03;;;22.30;66.00;;;;;;5099532;28;20551;-79
2023/07/20 08:45:18;;;;;;;10.23;3.07;;;22.20;65.90;;;;;;5109078;28;20479;-79
2023/07/20 08:47:48;;;;;;;7.53;3.00;;;22.20;66.10;;;;;;5106013;28;20456;-78
2023/07/20 08:50:17;;;;;;;7.07;3.07;;;22.30;66.10;;;;;;5107744;28;20472;-78
2023/07/20 08:52:45;;;;;;;5.50;2.70;;;22.40;66.00;;;;;;5102367;28;20466;-78
2023/07/20 08:55:14;;;;;;;13.20;2.90;;;22.60;65.90;;;;;;5104182;28;20781;-78
2023/07/20 08:57:43;;;;;;;7.90;2.40;;;22.60;65.70;;;;;;5102397;28;20463;-79
2023/07/20 09:00:15;;;;;;;7.67;2.90;;;22.50;65.50;;;;;;5102414;28;20536;-79
2023/07/20 09:02:46;;;;;;;6.60;2.83;;;22.50;65.20;;;;;;5096446;28;20488;-78
2023/07/20 09:05:15;;;;;;;9.10;2.97;;;22.50;65.20;;;;;;5101943;28;20996;-79
2023/07/20 09:07:43;;;;;;;6.93;2.67;;;22.50;65.20;;;;;;5101951;28;20487;-79
2023/07/20 09:10:12;;;;;;;11.10;3.07;;;22.50;64.90;;;;;;5105311;28;20544;-79
2023/07/20 09:12:42;;;;;;;6.17;2.70;;;22.60;64.70;;;;;;5101148;28;20444;-79
2023/07/20 09:15:12;;;;;;;6.43;2.70;;;22.50;64.50;;;;;;5098331;28;20510;-80
2023/07/20 09:17:46;;;;;;;8.73;3.00;;;22.50;64.40;;;;;;5102460;28;20483;-79
2023/07/20 09:20:16;;;;;;;7.30;2.70;;;22.40;64.40;;;;;;5094547;28;20448;-79
2023/07/20 09:22:49;;;;;;;7.33;2.57;;;22.50;64.20;;;;;;5098883;28;20539;-79
2023/07/20 09:25:19;;;;;;;8.60;2.80;;;22.50;64.20;;;;;;5101022;28;20547;-79
2023/07/20 09:27:50;;;;;;;5.67;2.43;;;22.70;64.20;;;;;;5098901;28;20460;-79
2023/07/20 09:30:26;;;;;;;5.67;2.30;;;22.80;64.10;;;;;;5097684;28;20883;-77
2023/07/20 09:32:57;;;;;;;5.90;2.60;;;22.90;63.80;;;;;;5098353;28;20857;-78
2023/07/20 09:35:25;;;;;;;5.77;2.23;;;22.90;63.50;;;;;;5102859;28;20504;-79
2023/07/20 09:38:00;;;;;;;6.13;2.77;;;22.90;63.30;;;;;;5101361;28;20453;-78
2023/07/20 09:40:31;;;;;;;8.17;2.93;;;22.90;63.40;;;;;;5100275;28;20455;-79
2023/07/20 09:43:04;;;;;;;9.90;2.50;;;23.00;63.40;;;;;;5095569;28;21271;-79
2023/07/20 09:45:41;;;;;;;7.40;2.53;;;23.00;63.20;;;;;;5102844;28;20448;-79
2023/07/20 09:48:12;;;;;;;6.60;2.30;;;23.00;63.20;;;;;;5102392;28;20459;-78
2023/07/20 09:50:49;;;;;;;6.17;1.90;;;23.00;62.60;;;;;;5097142;28;20445;-79
2023/07/20 09:53:18;;;;;;;6.67;2.27;;;23.00;62.30;;;;;;5099160;28;20536;-78
2023/07/20 09:55:47;;;;;;;6.67;2.07;;;23.00;62.10;;;;;;5095729;28;20444;-79
2023/07/20 09:58:16;;;;;;;6.83;2.30;;;23.00;61.80;;;;;;5102553;28;20522;-79
2023/07/20 10:00:50;;;;;;;6.37;2.20;;;23.10;61.60;;;;;;5094440;28;20568;-79
2023/07/20 10:03:23;;;;;;;7.27;2.50;;;23.20;61.30;;;;;;5096654;28;20456;-79
2023/07/20 10:05:57;;;;;;;7.63;2.40;;;23.10;61.00;;;;;;5095623;28;20463;-79
2023/07/20 10:08:26;;;;;;;5.03;1.87;;;23.10;60.70;;;;;;5098575;28;20459;-79
2023/07/20 10:11:00;;;;;;;7.93;2.10;;;23.10;60.60;;;;;;5095673;28;20960;-79
2023/07/20 10:13:30;;;;;;;6.90;2.30;;;23.20;60.30;;;;;;5100218;27;20445;-79
2023/07/20 10:16:04;;;;;;;6.17;2.47;;;23.20;60.40;;;;;;5105954;28;20446;-79
2023/07/20 10:18:38;;;;;;;6.03;2.13;;;23.30;60.20;;;;;;5102354;28;20451;-79
2023/07/20 10:21:08;;;;;;;6.30;2.00;;;23.40;60.20;;;;;;5100246;28;20482;-78
2023/07/20 10:23:40;;;;;;;10.87;2.50;;;23.40;60.00;;;;;;5101573;28;20972;-79
2023/07/20 10:26:08;;;;;;;11.83;2.83;;;23.50;60.10;;;;;;5100714;28;20531;-78
2023/07/20 10:28:37;;;;;;;5.10;2.20;;;23.60;59.70;;;;;;5106403;28;20451;-79
2023/07/20 10:31:08;;;;;;;6.10;2.37;;;23.60;59.60;;;;;;5099426;28;20561;-78
2023/07/20 10:33:37;;;;;;;6.27;2.53;;;23.60;58.80;;;;;;5098822;28;20528;-78
2023/07/20 10:36:07;;;;;;;5.53;2.00;;;23.70;58.90;;;;;;5100080;28;20522;-79
2023/07/20 10:38:42;;;;;;;5.30;2.20;;;23.80;59.00;;;;;;5102117;28;20994;-79
2023/07/20 10:41:21;;;;;;;6.17;2.13;;;23.80;58.90;;;;;;5102231;28;20543;-79
2023/07/20 10:43:50;;;;;;;6.10;2.37;;;23.80;58.60;;;;;;5099987;28;20570;-78
2023/07/20 10:46:45;;;;;;;6.57;2.03;;;23.90;58.60;;;;;;5100568;28;20456;-78
2023/07/20 10:49:16;;;;;;;5.10;1.93;;;23.90;58.60;;;;;;5095960;28;21161;-78
2023/07/20 10:51:46;;;;;;;6.37;2.23;;;23.90;58.20;;;;;;5099328;28;20566;-79
2023/07/20 10:54:47;;;;;;;6.27;1.87;;;23.90;58.00;;;;;;5098621;28;20452;-77
2023/07/20 10:57:26;;;;;;;4.67;1.80;;;23.90;57.90;;;;;;5099583;28;20874;-78
2023/07/20 11:00:12;;;;;;;5.90;2.33;;;24.00;57.90;;;;;;5102247;28;20494;-78
2023/07/20 11:02:49;;;;;;;7.33;2.03;;;24.10;57.50;;;;;;5098664;28;20563;-78
2023/07/20 11:05:40;;;;;;;7.13;1.90;;;24.00;57.10;;;;;;5100349;28;20489;-78
2023/07/20 11:08:12;;;;;;;6.83;2.47;;;24.00;56.70;;;;;;5103244;28;20488;-77
2023/07/20 11:10:39;;;;;;;5.20;1.97;;;23.90;56.60;;;;;;5100820;28;21221;-78
2023/07/20 11:13:22;;;;;;;6.20;1.93;;;23.90;56.80;;;;;;5095886;28;20481;-77
2023/07/20 11:16:05;;;;;;;5.90;1.93;;;24.00;56.70;;;;;;5098653;28;20465;-79
2023/07/20 11:18:39;;;;;;;5.03;2.00;;;24.00;56.70;;;;;;5097955;28;20510;-77
2023/07/20 11:21:10;;;;;;;5.10;2.20;;;24.10;56.60;;;;;;5100813;28;20459;-78
2023/07/20 11:23:39;;;;;;;5.03;1.97;;;24.10;56.60;;;;;;5099731;28;21197;-78
2023/07/20 11:26:08;;;;;;;6.40;1.80;;;24.20;56.30;;;;;;5101915;28;20506;-77
2023/07/20 11:28:36;;;;;;;5.20;1.80;;;24.20;55.90;;;;;;5104307;28;20505;-77
2023/07/20 11:31:04;;;;;;;7.07;2.27;;;24.30;56.10;;;;;;5098380;28;20480;-78
2023/07/20 11:33:32;;;;;;;5.57;2.23;;;24.40;56.10;;;;;;5100097;28;20530;-77
2023/07/20 11:36:02;;;;;;;6.70;2.20;;;24.40;56.00;;;;;;5099907;28;21306;-78
2023/07/20 11:38:50;;;;;;;4.80;1.80;;;24.40;55.90;;;;;;5098641;28;20464;-79
2023/07/20 11:41:18;;;;;;;6.07;2.17;;;24.40;55.60;;;;;;5099144;28;20448;-78
2023/07/20 11:43:46;;;;;;;6.77;2.10;;;24.20;55.30;;;;;;5098502;28;20478;-78
2023/07/20 11:46:15;;;;;;;6.40;1.80;;;24.30;55.40;;;;;;5096768;28;21033;-77
2023/07/20 11:48:44;;;;;;;5.53;1.60;;;24.40;55.50;;;;;;5102842;28;20452;-78
2023/07/20 11:51:16;;;;;;;8.83;2.43;;;24.50;55.40;;;;;;5100998;28;20544;-78
2023/07/20 11:53:46;;;;;;;5.20;2.00;;;24.50;55.20;;;;;;5104642;28;20568;-78
2023/07/20 11:56:14;;;;;;;6.00;1.67;;;24.60;55.30;;;;;;5100452;28;20455;-78
2023/07/20 11:58:46;;;;;;;5.03;1.30;;;24.70;55.10;;;;;;5099843;28;20462;-78
2023/07/20 12:01:14;;;;;;;4.40;1.77;;;24.60;54.20;;;;;;5101713;28;20493;-78
2023/07/20 12:03:43;;;;;;;7.07;1.97;;;24.60;54.70;;;;;;5105467;28;20542;-78
2023/07/20 12:06:12;;;;;;;5.80;1.77;;;24.70;54.70;;;;;;5104442;28;20497;-79
2023/07/20 12:08:42;;;;;;;4.63;1.60;;;24.70;54.50;;;;;;5101718;28;20528;-78
2023/07/20 12:11:11;;;;;;;4.53;1.77;;;24.80;54.30;;;;;;5105728;28;20467;-79
2023/07/20 12:13:42;;;;;;;6.13;1.83;;;24.90;54.40;;;;;;5102790;28;20471;-79
2023/07/20 12:16:13;;;;;;;5.97;2.00;;;24.90;54.60;;;;;;5104184;28;20519;-78
2023/07/20 12:18:41;;;;;;;5.30;1.90;;;25.00;54.80;;;;;;5107363;28;20460;-78
2023/07/20 12:21:11;;;;;;;6.50;1.93;;;24.90;54.50;;;;;;5101773;28;20484;-78
2023/07/20 12:23:42;;;;;;;4.87;1.70;;;24.80;54.50;;;;;;5100817;28;20494;-78
2023/07/20 12:26:11;;;;;;;4.53;1.70;;;24.80;54.30;;;;;;5099678;28;20460;-78
2023/07/20 12:28:42;;;;;;;5.93;1.83;;;24.90;54.20;;;;;;5107917;28;20505;-79
2023/07/20 12:31:13;;;;;;;5.70;1.50;;;24.90;54.30;;;;;;5100556;28;20469;-78
2023/07/20 12:33:41;;;;;;;5.63;1.50;;;24.90;53.50;;;;;;5100227;28;20478;-78
2023/07/20 12:36:10;;;;;;;5.93;2.03;;;24.80;53.20;;;;;;5098214;28;20555;-79
2023/07/20 12:38:38;;;;;;;4.30;1.30;;;24.70;53.10;;;;;;5106466;28;21512;-78
2023/07/20 12:41:07;;;;;;;6.37;1.83;;;24.80;53.30;;;;;;5102263;28;20547;-78
2023/07/20 12:43:35;;;;;;;4.60;1.90;;;25.00;53.50;;;;;;5108695;28;20450;-78
2023/07/20 12:46:04;;;;;;;5.93;1.83;;;25.10;53.40;;;;;;5102596;28;20540;-78
2023/07/20 12:48:32;;;;;;;5.60;1.70;;;25.20;53.50;;;;;;5098842;28;20449;-78
2023/07/20 12:51:00;;;;;;;4.50;1.70;;;25.30;53.30;;;;;;5105947;28;20462;-78
2023/07/20 12:53:28;;;;;;;5.30;2.37;;;25.30;53.00;;;;;;5106441;28;20507;-78
2023/07/20 12:55:56;;;;;;;5.80;2.00;;;25.20;53.00;;;;;;5097489;28;20449;-78